Main page
METAR-TAF:

METAR-TAF

Airports :

Varna Airport

Varna, Bulgaria

latitude: 43-12N, longitude: 027-55E, elevation: 41 m

Current weather observation

The report was made 21 minutes ago, at 20:30 UTC
Wind 6 kt from the Southeast
Temperature 7°C
Humidity 93%
Pressure 1024 hPa
Visibility: 4200 m
mist

METAR: LBWN 282030Z AUTO 13006KT 4200 BR OVC002/// 07/06 Q1024 TEMPO 1500 BR BKN001

Time: 22:51 (20:51 UTC)

Forecast

The report was made 3 hours and 51 minutes ago, at 17:00 UTC
Forecast valid from 28 at 18 UTC to 29 at 18 UTC
Wind 4 kt from variable directions
Visibility: 4000 m
Overcast at a height of 200 ft
mist
Becoming
from 28 at 20 UTC to 28 at 22 UTC
Visibility: 0600 m
fog
Becoming
from 29 at 08 UTC to 29 at 10 UTC
Wind 8 kt from the East
Visibility: 6000 m
Scattered clouds at a height of 600 ft
Scattered clouds at a height of 2000 ft

TAF: LBWN 281700Z 2818/2918 VRB04KT 4000 BR OVC002 BECMG 2820/2822 0600 FG BECMG 2908/2910 10008KT 6000 SCT006 SCT020

Weather observations and forecasts of more than 4000 airports (METAR and TAF reports).

The available stations are represented by yellow and red dots on the map.

Hover mouse over dot to see the name of the station.

Then click to see weather observations and forecasts.

To change the map : click on the green buttons with a black cross to zoom in, on the green button with a dash to zoom out, or on the green arrows for adjacent maps.


METAR-TAF: